Time;durP1;ratioP1;P1;durP2;ratioP2;P2;SDS_P1;SDS_P2;PMS_P1;PMS_P2;Temp;Humidity;BMP_temperature;BMP_pressure;BME280_temperature;BME280_humidity;BME280_pressure;Samples;Min_cycle;Max_cycle;Signal;HPM_P1;HPM_P2
2022/11/10 01:01:28;;;;;;;4.68;0.70;;;10.50;99.90;;;;;;6238925;22;20028;-91
2022/11/10 01:04:00;;;;;;;2.10;0.52;;;10.40;99.90;;;;;;6135355;22;20099;-92
2022/11/10 01:06:59;;;;;;;2.65;0.80;;;10.50;99.90;;;;;;6108183;23;20028;-92
2022/11/10 01:09:37;;;;;;;2.72;0.60;;;10.40;99.90;;;;;;6182878;23;20025;-91
2022/11/10 01:19:16;;;;;;;4.55;0.60;;;10.40;99.90;;;;;;6182688;22;19912;-95
2022/11/10 01:21:45;;;;;;;2.60;0.60;;;10.40;99.90;;;;;;6087501;23;20024;-90
2022/11/10 01:24:22;;;;;;;3.47;0.80;;;10.40;99.90;;;;;;6108429;23;20024;-91
2022/11/10 01:27:19;;;;;;;1.33;0.55;;;10.40;99.90;;;;;;6131320;23;20021;-91
2022/11/10 01:29:48;;;;;;;4.47;1.10;;;10.40;99.90;;;;;;6157310;23;20104;-92
2022/11/10 01:32:14;;;;;;;2.27;0.70;;;10.40;99.90;;;;;;6132486;23;20347;-92
2022/11/10 01:34:39;;;;;;;2.60;0.93;;;10.40;99.90;;;;;;6132258;23;20017;-95
2022/11/10 01:37:05;;;;;;;2.67;0.90;;;10.40;99.90;;;;;;6107273;23;20017;-92
2022/11/10 01:39:31;;;;;;;6.97;1.33;;;10.40;99.90;;;;;;6130227;23;20346;-93
2022/11/10 01:42:26;;;;;;;3.70;0.70;;;10.40;99.90;;;;;;6260000;22;20017;-93
2022/11/10 01:45:22;;;;;;;6.10;0.70;;;10.40;99.90;;;;;;6131412;23;20091;-92
2022/11/10 01:47:58;;;;;;;3.50;0.88;;;10.40;99.90;;;;;;6259855;22;20021;-92
2022/11/10 01:50:32;;;;;;;5.22;0.80;;;10.40;99.90;;;;;;6130644;23;20070;-91
2022/11/10 01:53:02;;;;;;;2.78;0.80;;;10.40;99.90;;;;;;6131452;23;20017;-92
2022/11/10 01:55:30;;;;;;;2.85;0.80;;;10.40;99.90;;;;;;6265590;22;20046;-92
2022/11/10 01:57:56;;;;;;;6.60;0.70;;;10.40;99.90;;;;;;6287617;22;20049;-91
2022/11/10 04:20:07;;;;;;;3.22;1.20;;;10.30;99.90;;;;;;6199264;22;20028;-92
2022/11/10 04:25:19;;;;;;;4.45;0.95;;;10.30;99.90;;;;;;6191735;23;20435;-95
2022/11/10 04:27:45;;;;;;;3.63;1.00;;;10.30;99.90;;;;;;6192701;23;20123;-91
2022/11/10 04:30:11;;;;;;;5.77;1.00;;;10.30;99.90;;;;;;6192983;23;20019;-93
2022/11/10 04:32:37;;;;;;;6.38;1.05;;;10.30;99.90;;;;;;6143564;23;20073;-96
2022/11/10 04:35:05;;;;;;;5.77;1.20;;;10.30;99.90;;;;;;6164463;23;20017;-92
2022/11/10 04:37:32;;;;;;;4.28;1.20;;;10.20;99.90;;;;;;6163276;23;20024;-92
2022/11/10 04:39:59;;;;;;;3.70;1.00;;;10.30;99.90;;;;;;6196232;23;20017;-94
2022/11/10 04:47:40;;;;;;;4.28;1.25;;;10.30;99.90;;;;;;6238730;22;20019;-92
2022/11/10 04:50:06;;;;;;;4.78;1.33;;;10.30;99.90;;;;;;6289239;22;20093;-93
2022/11/10 04:52:42;;;;;;;4.30;1.13;;;10.30;99.90;;;;;;6340803;22;20019;-93
2022/11/10 04:55:15;;;;;;;6.22;1.58;;;10.30;99.90;;;;;;6344264;22;20015;-95
2022/11/10 04:57:58;;;;;;;5.22;1.10;;;10.30;99.90;;;;;;6315681;22;20011;-95
2022/11/10 05:00:26;;;;;;;3.70;1.38;;;10.30;99.90;;;;;;6295163;22;20015;-96
2022/11/10 05:02:52;;;;;;;3.73;1.37;;;10.30;99.90;;;;;;6294069;22;20018;-92
2022/11/10 05:05:21;;;;;;;4.35;1.42;;;10.30;99.90;;;;;;6291267;22;20458;-92
2022/11/10 05:07:54;;;;;;;6.43;1.73;;;10.30;99.90;;;;;;6293140;22;20025;-94
2022/11/10 06:11:44;;;;;;;4.35;1.40;;;10.50;99.90;;;;;;6183038;22;20023;-89
2022/11/10 06:14:10;;;;;;;4.00;0.73;;;10.50;99.90;;;;;;6237714;22;20016;-90
2022/11/10 06:16:36;;;;;;;5.77;1.47;;;10.50;99.90;;;;;;6242293;22;20019;-91
2022/11/10 06:19:05;;;;;;;4.13;1.20;;;10.50;99.90;;;;;;6279727;22;20023;-88
2022/11/10 06:21:30;;;;;;;5.40;1.77;;;10.50;99.90;;;;;;6226697;22;20016;-91
2022/11/10 06:23:56;;;;;;;5.40;1.77;;;10.50;99.90;;;;;;6230276;22;20016;-91
2022/11/10 06:26:23;;;;;;;5.20;1.50;;;10.50;99.90;;;;;;6206561;22;20094;-94
2022/11/10 06:28:53;;;;;;;5.07;1.45;;;10.50;99.90;;;;;;6257028;22;20011;-91
2022/11/10 07:21:29;;;;;;;8.10;1.67;;;10.70;99.90;;;;;;6232928;22;20029;-91
2022/11/10 07:24:01;;;;;;;5.68;1.00;;;10.70;99.90;;;;;;6290696;22;20067;-91
2022/11/10 07:26:36;;;;;;;5.57;0.90;;;10.80;99.90;;;;;;6205931;22;20027;-92
2022/11/10 07:29:11;;;;;;;3.83;0.85;;;10.80;99.90;;;;;;6188322;23;20036;-90
2022/11/10 07:45:06;;;;;;;8.50;1.38;;;10.80;99.90;;;;;;6212038;23;20047;-91
2022/11/10 07:47:32;;;;;;;6.07;1.27;;;10.80;99.90;;;;;;6162261;23;20056;-93
2022/11/10 07:50:18;;;;;;;5.17;1.10;;;10.80;99.90;;;;;;6183060;22;20012;-92
2022/11/10 07:52:44;;;;;;;4.45;0.90;;;10.80;99.90;;;;;;6163789;22;20012;-91
2022/11/10 07:55:10;;;;;;;4.83;1.03;;;10.80;99.90;;;;;;6162745;23;20016;-92
2022/11/10 07:57:35;;;;;;;4.80;0.90;;;10.80;99.90;;;;;;6161115;23;20013;-91
2022/11/10 08:00:02;;;;;;;2.47;0.70;;;10.80;99.90;;;;;;6138086;23;20602;-92
2022/11/10 08:02:27;;;;;;;6.35;1.88;;;10.80;99.90;;;;;;6114004;23;20443;-91
2022/11/10 08:04:53;;;;;;;7.93;1.47;;;10.80;99.90;;;;;;6137637;23;20017;-91
2022/11/10 08:07:21;;;;;;;4.87;1.03;;;10.80;99.90;;;;;;6137684;23;20065;-94
2022/11/10 08:09:49;;;;;;;4.82;1.10;;;10.80;99.90;;;;;;6166753;23;20012;-96
2022/11/10 08:12:15;;;;;;;5.25;1.35;;;10.80;99.90;;;;;;6190608;23;20070;-96
2022/11/10 08:14:48;;;;;;;7.20;1.00;;;10.70;99.90;;;;;;6145740;23;20020;-95
2022/11/10 08:17:29;;;;;;;6.22;1.10;;;10.80;99.90;;;;;;6220236;23;20501;-94
2022/11/10 08:25:27;;;;;;;;;;;;;;;;;;;;;
2022/11/10 08:28:17;;;;;;;5.15;0.82;;;10.80;99.90;;;;;;6218582;23;20026;-93
2022/11/10 08:30:58;;;;;;;6.22;1.65;;;10.80;99.90;;;;;;6183499;23;20096;-92
2022/11/10 08:33:25;;;;;;;5.90;1.10;;;10.90;99.90;;;;;;6155017;23;20029;-93
2022/11/10 08:43:50;;;;;;;5.93;1.10;;;11.10;99.90;;;;;;6183473;23;20021;-93
2022/11/10 08:46:22;;;;;;;3.95;1.00;;;11.20;99.90;;;;;;6132721;23;20027;-94
2022/11/10 08:48:57;;;;;;;4.32;1.05;;;11.20;99.90;;;;;;6133945;23;20021;-95
2022/11/10 08:51:50;;;;;;;7.00;1.20;;;11.20;99.90;;;;;;6114608;23;20013;-92
2022/11/10 08:54:18;;;;;;;5.28;1.20;;;11.30;99.90;;;;;;6140552;23;20462;-93
2022/11/10 08:56:52;;;;;;;6.43;1.27;;;11.30;99.90;;;;;;6145142;23;20013;-93
2022/11/10 08:59:35;;;;;;;2.55;0.77;;;11.30;99.90;;;;;;6141240;23;20028;-93
2022/11/10 09:02:42;;;;;;;8.35;1.45;;;11.40;99.90;;;;;;6138524;23;20021;-93
2022/11/10 09:05:20;;;;;;;8.20;1.45;;;11.40;99.90;;;;;;6151114;23;20044;-93
2022/11/10 10:48:39;;;;;;;;;;;;;;;;;;;;;
2022/11/10 10:52:14;;;;;;;7.85;2.40;;;12.60;99.90;;;;;;6136673;23;20017;-93
2022/11/10 10:55:06;;;;;;;9.75;2.42;;;12.70;99.90;;;;;;6132046;23;20025;-93
2022/11/10 10:57:32;;;;;;;6.20;2.15;;;12.70;99.90;;;;;;6131885;23;20013;-94
2022/11/10 11:00:20;;;;;;;8.63;3.08;;;12.80;99.90;;;;;;6084123;23;20017;-91
2022/11/10 11:03:38;;;;;;;6.88;2.60;;;12.80;99.90;;;;;;6125784;23;20017;-91
2022/11/10 11:06:17;;;;;;;7.95;2.75;;;12.80;99.90;;;;;;6131902;23;20049;-92
2022/11/10 11:09:38;;;;;;;6.60;2.40;;;12.90;99.90;;;;;;6131490;23;20017;-92
2022/11/10 11:12:09;;;;;;;6.07;3.55;;;12.90;99.90;;;;;;6186038;22;20059;-93
2022/11/10 11:15:20;;;;;;;;;;;;;;;;;;;;;
2022/11/10 11:18:03;;;;;;;8.02;2.70;;;12.90;99.90;;;;;;6156489;22;20021;-93
2022/11/10 11:21:20;;;;;;;8.05;2.60;;;12.90;99.90;;;;;;6131672;23;20400;-92
2022/11/10 11:45:44;;;;;;;6.43;1.60;;;13.10;99.90;;;;;;6157300;23;20339;-94
2022/11/10 11:48:32;;;;;;;8.02;2.33;;;13.10;99.90;;;;;;6131515;23;20021;-94
2022/11/10 11:51:23;;;;;;;7.25;2.00;;;13.20;99.90;;;;;;6131138;23;20023;-94
2022/11/10 11:54:15;;;;;;;5.55;1.42;;;13.10;99.90;;;;;;6132683;23;20389;-92
2022/11/10 11:56:46;;;;;;;3.97;1.50;;;13.20;99.90;;;;;;6137987;23;20358;-91
2022/11/10 12:02:30;;;;;;;5.90;1.88;;;13.10;99.90;;;;;;6156953;22;20051;-91
2022/11/10 12:05:32;;;;;;;5.13;1.35;;;13.10;99.90;;;;;;6132604;23;20013;-93
2022/11/10 12:55:13;;;;;;;4.57;0.82;;;13.50;99.90;;;;;;6291835;22;20078;-94
2022/11/10 12:57:41;;;;;;;5.57;0.95;;;13.50;99.90;;;;;;6313873;22;20095;-89
2022/11/10 13:00:26;;;;;;;4.50;1.08;;;13.50;99.90;;;;;;6287609;22;20093;-93
2022/11/10 13:02:54;;;;;;;6.32;0.80;;;13.50;99.90;;;;;;6286771;22;20015;-91
2022/11/10 13:09:54;;;;;;;5.85;1.35;;;13.50;99.90;;;;;;6341168;22;20021;-92
